Time;durP1;ratioP1;P1;durP2;ratioP2;P2;SDS_P1;SDS_P2;PMS_P1;PMS_P2;Temp;Humidity;BMP_temperature;BMP_pressure;BME280_temperature;BME280_humidity;BME280_pressure;Samples;Min_cycle;Max_cycle;Signal;HPM_P1;HPM_P2
2023/12/10 00:01:15;;;;;;;32.27;8.40;;;;;;;8.15;100.00;99748.78;5152108;28;20509;-76
2023/12/10 00:03:46;;;;;;;36.07;9.33;;;;;;;8.08;100.00;99742.81;5136405;29;20386;-77
2023/12/10 00:06:18;;;;;;;27.03;7.97;;;;;;;8.14;100.00;99750.50;5137234;29;20423;-75
2023/12/10 00:08:49;;;;;;;26.57;8.43;;;;;;;8.22;100.00;99750.34;5135884;28;20056;-75
2023/12/10 00:11:21;;;;;;;37.83;8.13;;;;;;;8.22;100.00;99751.19;5137485;29;20090;-76
2023/12/10 00:13:52;;;;;;;25.50;7.27;;;;;;;8.30;100.00;99756.22;5137350;29;20067;-75
2023/12/10 00:16:23;;;;;;;33.97;8.37;;;;;;;8.30;100.00;99755.41;5152286;28;20128;-77
2023/12/10 00:18:55;;;;;;;34.83;8.90;;;;;;;8.35;99.82;99757.00;5138032;28;20122;-77
2023/12/10 00:21:26;;;;;;;35.37;8.60;;;;;;;8.37;99.46;99755.25;5143614;29;20040;-77
2023/12/10 00:23:58;;;;;;;33.47;9.40;;;;;;;8.40;98.73;99759.50;5227553;28;20115;-77
2023/12/10 00:26:29;;;;;;;25.37;7.47;;;;;;;8.39;98.95;99758.66;5143942;29;20130;-75
2023/12/10 00:29:00;;;;;;;33.03;7.40;;;;;;;8.42;97.86;99768.13;5144493;28;20040;-76
2023/12/10 00:31:32;;;;;;;28.63;7.50;;;;;;;8.51;96.75;99793.94;5137973;29;20439;-76
2023/12/10 00:34:03;;;;;;;33.30;7.47;;;;;;;8.47;96.49;99794.91;5136610;29;20105;-76
2023/12/10 00:36:35;;;;;;;22.43;6.60;;;;;;;8.48;97.24;99782.75;5138799;29;20063;-77
2023/12/10 00:39:06;;;;;;;29.57;8.53;;;;;;;8.44;96.77;99787.16;5150024;28;20027;-74
2023/12/10 00:41:38;;;;;;;24.53;7.30;;;;;;;8.32;98.27;99777.84;5155524;28;20042;-76
2023/12/10 00:44:09;;;;;;;28.10;8.93;;;;;;;8.28;98.22;99791.78;5155400;28;20062;-76
2023/12/10 00:46:40;;;;;;;21.60;7.30;;;;;;;8.22;99.01;99778.91;5154501;29;20413;-77
2023/12/10 00:49:12;;;;;;;25.97;7.07;;;;;;;8.23;99.04;99788.41;5154334;29;20049;-73
2023/12/10 00:51:43;;;;;;;24.73;7.63;;;;;;;8.23;98.44;99770.25;5140382;28;20102;-75
2023/12/10 00:54:15;;;;;;;27.03;8.37;;;;;;;8.24;98.63;99778.88;5140697;29;20040;-77
2023/12/10 00:56:46;;;;;;;26.40;6.23;;;;;;;7.99;100.00;99782.78;5210367;28;20037;-75
2023/12/10 00:59:17;;;;;;;25.60;6.20;;;;;;;7.89;100.00;99793.34;5243657;28;20096;-76
2023/12/10 01:01:49;;;;;;;22.03;6.40;;;;;;;7.88;100.00;99812.41;5244513;28;20033;-74
2023/12/10 01:04:22;;;;;;;25.70;7.33;;;;;;;7.94;100.00;99807.13;5244001;28;20025;-74
2023/12/10 01:06:53;;;;;;;23.10;6.60;;;;;;;8.00;100.00;99802.69;5244522;28;20396;-75
2023/12/10 01:09:24;;;;;;;28.40;7.13;;;;;;;7.91;100.00;99814.97;5244039;28;20083;-75
2023/12/10 01:11:56;;;;;;;29.13;7.47;;;;;;;7.92;100.00;99801.09;5244588;28;20060;-77
2023/12/10 01:14:27;;;;;;;30.93;8.77;;;;;;;7.65;100.00;99804.13;5259792;28;20033;-76
2023/12/10 01:16:59;;;;;;;33.80;9.00;;;;;;;7.52;100.00;99809.53;5244224;28;20387;-76
2023/12/10 01:19:30;;;;;;;26.23;6.97;;;;;;;7.46;100.00;99810.50;5244607;28;20048;-76
2023/12/10 01:22:02;;;;;;;22.47;6.33;;;;;;;7.43;100.00;99795.00;5244036;28;20041;-77
2023/12/10 01:24:33;;;;;;;31.40;6.97;;;;;;;7.44;100.00;99799.31;5260259;28;20418;-77
2023/12/10 01:27:05;;;;;;;26.57;7.97;;;;;;;7.63;100.00;99816.28;5242840;28;20033;-77
2023/12/10 01:29:36;;;;;;;31.00;7.17;;;;;;;7.63;100.00;99818.00;5244457;28;20112;-78
2023/12/10 01:32:10;;;;;;;29.10;8.60;;;;;;;7.73;100.00;99816.09;5246250;28;20030;-78
2023/12/10 01:34:41;;;;;;;27.80;7.70;;;;;;;7.80;100.00;99820.31;5250675;28;20030;-78
2023/12/10 01:37:13;;;;;;;25.07;6.40;;;;;;;7.84;100.00;99807.28;5254444;28;20031;-76
2023/12/10 01:39:44;;;;;;;26.37;6.70;;;;;;;7.73;100.00;99827.34;5247825;28;20040;-77
2023/12/10 01:42:17;;;;;;;23.57;6.50;;;;;;;7.61;100.00;99840.50;5242192;28;20033;-78
2023/12/10 01:44:48;;;;;;;28.10;7.75;;;;;;;7.44;100.00;99839.03;5243335;28;20033;-77
2023/12/10 01:47:19;;;;;;;26.73;6.87;;;;;;;7.33;100.00;99853.06;5243472;28;20036;-76
2023/12/10 01:49:51;;;;;;;26.90;7.53;;;;;;;7.12;100.00;99862.84;5243586;28;20032;-75
2023/12/10 01:52:22;;;;;;;30.57;7.67;;;;;;;7.12;100.00;99849.88;5241883;28;20132;-76
2023/12/10 01:54:54;;;;;;;21.30;7.13;;;;;;;7.05;100.00;99856.00;5243505;28;20032;-74
2023/12/10 01:57:29;;;;;;;24.50;7.13;;;;;;;6.94;100.00;99859.59;5241970;28;20490;-75
2023/12/10 02:00:05;;;;;;;26.85;8.63;;;;;;;6.99;100.00;99851.78;5243026;28;20096;-74
2023/12/10 02:02:37;;;;;;;26.85;7.10;;;;;;;7.11;100.00;99840.38;5242825;28;20049;-74
2023/12/10 02:05:09;;;;;;;26.40;7.47;;;;;;;6.94;100.00;99875.16;5242574;28;20480;-74
2023/12/10 02:07:44;;;;;;;23.73;6.97;;;;;;;6.72;100.00;99864.19;5242953;28;20061;-73
2023/12/10 02:10:16;;;;;;;28.40;6.80;;;;;;;6.64;100.00;99876.38;5242804;28;20037;-74
2023/12/10 02:12:48;;;;;;;20.40;5.90;;;;;;;6.63;100.00;99876.38;5243059;28;20036;-74
2023/12/10 02:15:21;;;;;;;30.85;7.47;;;;;;;6.65;100.00;99862.56;5242597;28;20033;-74
2023/12/10 02:17:52;;;;;;;;;;;;;;;6.64;100.00;99853.06;5243229;28;20113;-73
2023/12/10 02:20:23;;;;;;;25.17;6.53;;;;;;;6.50;100.00;99878.25;5241415;28;19920;-74
2023/12/10 02:23:09;;;;;;;24.60;7.10;;;;;;;6.43;100.00;99861.09;5241379;28;20068;-72
2023/12/10 02:25:41;;;;;;;25.40;7.07;;;;;;;6.36;100.00;99866.31;5242842;28;20025;-76
2023/12/10 02:28:12;;;;;;;24.73;5.77;;;;;;;6.33;100.00;99868.09;5242236;28;20025;-74
2023/12/10 02:30:44;;;;;;;26.57;5.83;;;;;;;6.36;100.00;99861.16;5242270;28;20538;-75
2023/12/10 02:33:15;;;;;;;26.33;6.97;;;;;;;6.53;100.00;99870.44;5242549;28;20044;-74
2023/12/10 02:35:47;;;;;;;20.00;6.40;;;;;;;6.45;100.00;99878.28;5242674;28;20044;-75
2023/12/10 02:38:20;;;;;;;24.80;6.03;;;;;;;6.65;100.00;99880.69;5242102;28;20441;-75
2023/12/10 02:40:52;;;;;;;23.48;6.97;;;;;;;6.79;100.00;99875.31;5242061;28;20029;-74
2023/12/10 02:43:23;;;;;;;22.67;6.60;;;;;;;6.67;100.00;99885.84;5242262;28;20107;-75
2023/12/10 02:45:55;;;;;;;26.00;7.30;;;;;;;6.66;100.00;99878.94;5242199;28;20136;-73
2023/12/10 02:48:26;;;;;;;26.77;6.10;;;;;;;6.55;100.00;99858.34;5242079;28;20025;-74
2023/12/10 02:50:57;;;;;;;24.67;6.03;;;;;;;6.62;100.00;99878.13;5240800;28;20121;-74
2023/12/10 02:53:29;;;;;;;22.40;6.30;;;;;;;6.71;100.00;99892.69;5240665;28;20401;-74
2023/12/10 02:56:00;;;;;;;22.73;6.03;;;;;;;6.79;100.00;99890.88;5242055;28;20025;-74
2023/12/10 02:58:31;;;;;;;24.13;6.43;;;;;;;6.76;100.00;99906.44;5240505;28;20048;-75
2023/12/10 03:01:03;;;;;;;21.83;5.63;;;;;;;6.72;100.00;99905.63;5241916;28;20034;-74
2023/12/10 03:03:34;;;;;;;22.60;6.60;;;;;;;6.79;100.00;99901.22;5241211;28;20102;-74
2023/12/10 03:06:07;;;;;;;26.90;7.20;;;;;;;6.55;100.00;99907.53;5181735;28;20032;-75
2023/12/10 03:08:38;;;;;;;29.17;6.63;;;;;;;6.44;100.00;99907.66;5134695;28;20400;-75
2023/12/10 03:11:10;;;;;;;20.10;7.10;;;;;;;6.36;100.00;99901.72;5135273;28;20317;-76
2023/12/10 03:13:42;;;;;;;23.13;6.60;;;;;;;6.71;100.00;99914.28;5137473;28;20032;-75
2023/12/10 03:16:14;;;;;;;21.52;6.70;;;;;;;6.75;100.00;99908.19;5139537;29;20055;-73
2023/12/10 03:18:45;;;;;;;24.60;6.10;;;;;;;6.90;100.00;99917.50;5139910;28;20044;-75
2023/12/10 03:21:16;;;;;;;23.53;6.27;;;;;;;6.92;100.00;99915.78;5137620;28;20028;-75
2023/12/10 03:23:48;;;;;;;21.47;7.00;;;;;;;6.87;100.00;99919.28;5137650;28;20059;-75
2023/12/10 03:26:19;;;;;;;28.53;6.10;;;;;;;6.68;100.00;99919.50;5152341;29;20543;-75
2023/12/10 03:28:50;;;;;;;24.23;7.07;;;;;;;7.02;100.00;99934.66;5137549;28;20043;-75
2023/12/10 03:31:22;;;;;;;22.70;6.33;;;;;;;7.36;100.00;99954.97;5137447;29;20074;-73
2023/12/10 03:33:53;;;;;;;35.00;6.73;;;;;;;7.41;100.00;99927.25;5137127;29;20040;-74
2023/12/10 03:36:25;;;;;;;23.37;6.27;;;;;;;7.58;98.85;99949.50;5151962;28;20039;-73
2023/12/10 03:38:56;;;;;;;20.77;5.60;;;;;;;7.37;100.00;99961.00;5137512;29;20501;-75
2023/12/10 03:41:27;;;;;;;23.07;6.67;;;;;;;7.64;97.86;99958.03;5135973;28;20031;-74
2023/12/10 03:43:59;;;;;;;18.53;5.60;;;;;;;7.89;94.61;99964.59;5137461;29;20034;-72
2023/12/10 03:46:30;;;;;;;20.43;6.27;;;;;;;7.80;95.42;99963.88;5137019;29;20035;-73
2023/12/10 03:49:02;;;;;;;27.07;6.87;;;;;;;7.73;96.24;100003.75;5137133;29;20071;-74
2023/12/10 03:51:33;;;;;;;18.70;5.43;;;;;;;7.99;92.61;99974.00;5136933;28;20114;-72
2023/12/10 03:54:05;;;;;;;15.20;6.20;;;;;;;8.15;90.39;99972.00;5137112;29;20032;-73
2023/12/10 03:56:36;;;;;;;26.73;6.90;;;;;;;8.14;91.16;99976.34;5136787;28;20036;-75
2023/12/10 03:59:07;;;;;;;13.23;4.43;;;;;;;8.01;93.29;99961.84;5136907;29;20370;-76
2023/12/10 04:01:43;;;;;;;22.30;5.67;;;;;;;7.97;92.55;99957.56;5137112;28;20074;-75
2023/12/10 04:04:14;;;;;;;17.17;5.68;;;;;;;8.08;91.35;99976.41;5136805;28;20098;-74
2023/12/10 04:06:46;;;;;;;17.53;5.87;;;;;;;8.17;89.98;99976.28;5136490;28;20044;-73
2023/12/10 04:09:17;;;;;;;22.13;7.60;;;;;;;8.24;89.26;99982.22;5136773;29;20055;-74
2023/12/10 04:11:48;;;;;;;20.83;5.37;;;;;;;8.21;89.88;99988.34;5151530;29;20122;-74
2023/12/10 04:14:20;;;;;;;16.17;6.20;;;;;;;8.25;89.33;99983.97;5136913;29;20040;-73
2023/12/10 04:16:51;;;;;;;22.63;7.70;;;;;;;8.28;88.66;99988.25;5135442;28;20064;-74
2023/12/10 04:19:22;;;;;;;19.37;5.83;;;;;;;8.26;89.04;99998.66;5137699;29;20043;-73
2023/12/10 04:21:54;;;;;;;21.43;5.57;;;;;;;8.24;89.05;100002.16;5140224;28;20191;-73
2023/12/10 04:24:25;;;;;;;17.57;5.20;;;;;;;8.22;90.02;100010.81;5139996;28;20479;-74
2023/12/10 04:26:57;;;;;;;20.37;5.67;;;;;;;8.30;87.83;99965.72;5140014;29;20402;-73
2023/12/10 04:29:28;;;;;;;26.30;6.10;;;;;;;8.33;87.05;99999.41;5138635;29;20463;-72
2023/12/10 04:32:00;;;;;;;22.77;6.43;;;;;;;8.39;86.43;100026.16;5138867;28;20102;-74
2023/12/10 04:34:31;;;;;;;18.43;6.07;;;;;;;8.46;85.16;100032.13;5139871;28;20435;-73
2023/12/10 04:37:02;;;;;;;18.93;5.33;;;;;;;8.52;84.65;100020.78;5154914;29;20035;-73
2023/12/10 04:39:34;;;;;;;15.97;5.10;;;;;;;8.48;84.83;100032.09;5140119;29;20032;-72
2023/12/10 04:42:05;;;;;;;20.63;6.83;;;;;;;8.50;83.97;100045.91;5139969;28;20040;-73
2023/12/10 04:44:37;;;;;;;21.23;5.67;;;;;;;8.56;83.42;100066.59;5139692;29;20043;-72
2023/12/10 04:47:08;;;;;;;19.50;6.33;;;;;;;8.55;83.68;100031.13;5139656;28;20063;-73
2023/12/10 04:49:39;;;;;;;27.27;7.00;;;;;;;8.46;84.89;100039.06;5139956;28;20035;-74
2023/12/10 04:52:11;;;;;;;16.70;5.83;;;;;;;8.43;84.77;100037.38;5140232;29;20375;-74
2023/12/10 04:54:43;;;;;;;22.60;5.70;;;;;;;8.46;84.86;100037.31;5139541;29;20070;-75
2023/12/10 04:57:14;;;;;;;17.95;4.45;;;;;;;8.46;84.50;100049.47;5142018;29;20056;-72
2023/12/10 04:59:46;;;;;;;17.47;6.13;;;;;;;8.47;84.01;100082.31;5140399;29;20074;-73
2023/12/10 05:02:17;;;;;;;18.97;6.33;;;;;;;8.40;85.01;100074.63;5139528;29;20032;-74
2023/12/10 05:04:48;;;;;;;18.23;6.03;;;;;;;8.51;83.54;100081.41;5139284;28;20063;-72
2023/12/10 05:07:20;;;;;;;23.33;7.77;;;;;;;8.55;82.99;100072.69;5139813;28;20075;-75
2023/12/10 05:09:51;;;;;;;17.30;6.37;;;;;;;8.51;84.02;100097.00;5139105;29;20126;-76
2023/12/10 05:12:23;;;;;;;22.40;6.17;;;;;;;8.48;84.08;100100.47;5141179;28;20102;-75
2023/12/10 05:14:55;;;;;;;21.50;5.87;;;;;;;8.42;84.92;100099.69;5140641;29;20031;-74
2023/12/10 05:17:26;;;;;;;19.15;6.65;;;;;;;8.49;83.67;100102.22;5139390;29;20043;-74
2023/12/10 05:19:58;;;;;;;23.17;6.50;;;;;;;8.48;83.76;100105.69;5139454;28;20040;-75
2023/12/10 05:22:29;;;;;;;17.03;5.10;;;;;;;8.52;83.44;100103.91;5139340;28;20032;-74
2023/12/10 05:25:03;;;;;;;20.83;5.20;;;;;;;8.45;84.04;100116.09;5139201;28;20035;-75
2023/12/10 05:27:34;;;;;;;17.67;5.47;;;;;;;8.45;83.93;100105.72;5139588;29;20493;-75
2023/12/10 05:30:06;;;;;;;23.57;5.53;;;;;;;8.44;84.19;100131.75;5139186;28;20036;-75
2023/12/10 05:32:37;;;;;;;22.53;5.57;;;;;;;8.53;83.55;100127.28;5137374;28;20055;-75
2023/12/10 05:35:09;;;;;;;21.53;5.53;;;;;;;8.51;83.37;100126.41;5138739;29;20054;-73
2023/12/10 05:37:41;;;;;;;20.33;7.30;;;;;;;8.57;82.47;100141.91;5139450;29;20530;-72
2023/12/10 05:40:13;;;;;;;22.90;5.93;;;;;;;8.57;82.99;100133.28;5139083;28;20058;-74
2023/12/10 05:42:44;;;;;;;22.80;6.47;;;;;;;8.58;82.95;100177.41;5139157;28;20534;-73
2023/12/10 05:45:15;;;;;;;24.13;6.70;;;;;;;8.55;83.02;100159.28;5139233;28;20057;-74
2023/12/10 05:47:47;;;;;;;15.90;5.13;;;;;;;8.50;83.96;100155.00;5138986;28;20067;-73
2023/12/10 05:50:18;;;;;;;21.10;7.90;;;;;;;8.59;82.67;100157.47;5137765;28;20131;-74
2023/12/10 05:52:50;;;;;;;26.57;6.40;;;;;;;8.55;83.34;100154.06;5139217;29;20043;-74
2023/12/10 05:55:21;;;;;;;21.40;6.30;;;;;;;8.57;82.97;100156.66;5139022;28;20132;-74
2023/12/10 05:57:52;;;;;;;19.80;6.10;;;;;;;8.57;82.94;100165.28;5139176;29;20121;-75
2023/12/10 06:00:24;;;;;;;23.77;5.83;;;;;;;8.54;83.83;100154.09;5138899;28;20035;-74
2023/12/10 06:02:55;;;;;;;16.40;5.43;;;;;;;8.58;82.82;100182.63;5137678;28;20170;-74
2023/12/10 06:05:26;;;;;;;22.13;7.07;;;;;;;8.59;82.50;100170.47;5138542;28;20484;-74
2023/12/10 06:07:58;;;;;;;19.40;6.77;;;;;;;8.58;82.86;100174.81;5138592;28;20051;-74
2023/12/10 06:10:29;;;;;;;22.13;6.77;;;;;;;8.57;82.99;100199.06;5138979;28;20067;-73
2023/12/10 06:13:01;;;;;;;26.23;6.33;;;;;;;8.53;83.49;100183.53;5138698;28;20035;-74
2023/12/10 06:15:32;;;;;;;19.37;5.47;;;;;;;8.55;83.04;100208.63;5138704;29;20408;-74
2023/12/10 06:18:04;;;;;;;23.60;8.13;;;;;;;8.57;82.83;100208.63;5153221;28;20036;-74
2023/12/10 06:20:35;;;;;;;20.23;5.90;;;;;;;8.56;82.72;100219.88;5153384;29;20035;-74
2023/12/10 06:23:07;;;;;;;21.13;7.43;;;;;;;8.53;83.57;100200.00;5138623;28;20059;-75
2023/12/10 06:25:38;;;;;;;20.10;5.73;;;;;;;8.50;83.91;100223.44;5138530;28;20385;-75
2023/12/10 06:28:09;;;;;;;20.47;6.33;;;;;;;8.49;83.73;100228.63;5153485;29;20028;-75
2023/12/10 06:30:41;;;;;;;24.07;6.70;;;;;;;8.51;83.94;100235.50;5138245;28;20043;-75
2023/12/10 06:33:12;;;;;;;22.33;6.90;;;;;;;8.49;83.91;100250.28;5121635;28;20107;-74
2023/12/10 06:35:44;;;;;;;25.80;6.37;;;;;;;8.48;83.89;100261.53;5137874;29;20036;-74
2023/12/10 06:38:15;;;;;;;19.50;6.50;;;;;;;8.51;83.76;100274.47;5138139;29;20079;-74
2023/12/10 06:40:46;;;;;;;21.67;6.43;;;;;;;8.52;83.50;100278.81;5152796;28;20433;-73
2023/12/10 06:43:18;;;;;;;19.43;5.63;;;;;;;8.51;83.86;100286.63;5137953;28;20040;-75
2023/12/10 06:45:51;;;;;;;25.20;6.33;;;;;;;8.47;84.45;100256.34;5138373;28;20075;-74
2023/12/10 06:48:22;;;;;;;22.75;6.72;;;;;;;8.50;83.63;100272.78;5138150;29;20039;-74
2023/12/10 06:50:54;;;;;;;21.40;5.77;;;;;;;8.51;83.75;100297.00;5136997;29;20031;-75
2023/12/10 06:53:25;;;;;;;19.00;5.33;;;;;;;8.47;84.32;100303.97;5138074;29;20367;-74
2023/12/10 06:55:57;;;;;;;16.23;5.77;;;;;;;8.49;83.93;100288.38;5136797;28;20040;-76
2023/12/10 06:58:29;;;;;;;22.08;6.38;;;;;;;8.51;83.80;100304.81;5138132;29;20035;-75
2023/12/10 07:01:04;;;;;;;19.90;5.20;;;;;;;8.41;85.35;100304.03;5137651;28;20507;-75
2023/12/10 07:03:36;;;;;;;20.65;6.47;;;;;;;8.43;84.59;100325.66;5137537;29;20453;-74
2023/12/10 07:06:07;;;;;;;26.30;7.50;;;;;;;8.45;84.00;100310.91;5137695;28;20031;-74
2023/12/10 07:08:39;;;;;;;26.53;6.27;;;;;;;8.43;84.13;100330.84;5137969;29;20059;-74
2023/12/10 07:11:10;;;;;;;21.33;5.77;;;;;;;8.45;83.93;100323.91;5137965;29;20039;-74
2023/12/10 07:13:42;;;;;;;22.73;5.60;;;;;;;8.40;84.79;100318.75;5137830;29;20031;-74
2023/12/10 07:16:13;;;;;;;24.90;7.17;;;;;;;8.42;83.66;100300.56;5137916;29;20139;-74
2023/12/10 07:18:45;;;;;;;19.57;6.60;;;;;;;8.47;83.26;100329.09;5137679;28;20031;-74
2023/12/10 07:21:16;;;;;;;26.13;5.03;;;;;;;8.40;84.45;100325.66;5136565;28;20054;-75
2023/12/10 07:23:48;;;;;;;27.87;7.77;;;;;;;8.40;83.68;100344.72;5136495;28;20028;-75
2023/12/10 07:26:23;;;;;;;24.00;6.07;;;;;;;8.43;83.58;100341.25;5137807;28;20502;-74
2023/12/10 07:28:55;;;;;;;14.70;4.78;;;;;;;8.47;82.74;100357.66;5137260;29;20040;-75
2023/12/10 07:31:26;;;;;;;17.47;5.53;;;;;;;8.46;82.88;100361.16;5137515;29;20032;-75
2023/12/10 07:33:57;;;;;;;19.47;6.63;;;;;;;8.40;83.83;100365.50;5137543;29;20032;-74
2023/12/10 07:36:29;;;;;;;18.47;6.00;;;;;;;8.37;84.22;100370.72;5137628;29;20054;-74
2023/12/10 07:39:00;;;;;;;22.03;7.63;;;;;;;8.36;84.24;100366.41;5137625;29;20102;-75
2023/12/10 07:41:32;;;;;;;25.40;6.23;;;;;;;8.37;84.11;100375.94;5137534;29;20054;-73
2023/12/10 07:44:04;;;;;;;24.13;5.60;;;;;;;8.33;84.72;100382.00;5138103;29;20051;-75
2023/12/10 07:46:35;;;;;;;26.02;7.60;;;;;;;8.35;84.93;100390.63;5137741;28;20493;-76
2023/12/10 07:49:07;;;;;;;24.67;6.17;;;;;;;8.31;85.61;100396.75;5137513;29;20032;-74
2023/12/10 07:51:38;;;;;;;28.70;7.63;;;;;;;8.30;86.50;100402.81;5137766;29;20031;-76
2023/12/10 07:54:09;;;;;;;22.77;6.20;;;;;;;8.28;86.68;100414.97;5139269;29;20467;-75
2023/12/10 07:56:41;;;;;;;26.03;6.17;;;;;;;8.32;86.65;100410.59;5144762;29;20036;-75
2023/12/10 07:59:12;;;;;;;21.40;6.90;;;;;;;8.33;87.01;100418.38;5144777;29;20027;-74
2023/12/10 08:01:44;;;;;;;27.90;8.53;;;;;;;8.31;88.03;100417.53;5143066;28;20035;-73
2023/12/10 08:04:15;;;;;;;22.27;5.00;;;;;;;8.26;88.97;100426.22;5145578;29;20051;-73
2023/12/10 08:06:46;;;;;;;28.57;7.33;;;;;;;8.27;89.29;100433.16;5148345;28;20122;-73
2023/12/10 08:09:18;;;;;;;18.37;6.60;;;;;;;8.25;89.59;100430.56;5144020;28;20036;-73
2023/12/10 08:11:49;;;;;;;21.73;7.80;;;;;;;8.28;89.82;100403.72;5143953;29;20051;-73
2023/12/10 08:14:25;;;;;;;23.93;6.43;;;;;;;8.27;90.04;100427.97;5142321;29;20044;-73
2023/12/10 08:16:57;;;;;;;26.75;8.15;;;;;;;8.25;90.96;100446.16;5156091;29;20043;-73
2023/12/10 08:19:28;;;;;;;21.10;6.77;;;;;;;8.28;90.86;100446.13;5143055;29;20347;-74
2023/12/10 08:22:00;;;;;;;28.47;6.07;;;;;;;8.25;91.55;100440.09;5142493;29;20075;-75
2023/12/10 08:24:31;;;;;;;23.90;7.27;;;;;;;8.24;91.98;100444.41;5136040;28;20035;-75
2023/12/10 08:27:03;;;;;;;26.07;7.47;;;;;;;8.24;92.09;100459.16;5142430;28;20035;-74
2023/12/10 08:29:34;;;;;;;22.13;5.60;;;;;;;8.25;91.64;100459.13;5142871;29;20036;-74
2023/12/10 08:32:06;;;;;;;23.60;6.40;;;;;;;8.28;92.01;100463.44;5141181;28;20058;-74
2023/12/10 08:34:38;;;;;;;22.67;7.23;;;;;;;8.25;91.65;100451.34;5225068;28;20065;-74
2023/12/10 08:37:10;;;;;;;25.63;7.20;;;;;;;8.24;91.90;100495.50;5142090;28;20055;-73
2023/12/10 08:39:42;;;;;;;22.47;6.77;;;;;;;8.26;92.16;100475.56;5142060;29;20303;-74
2023/12/10 08:42:13;;;;;;;26.75;7.60;;;;;;;8.28;91.43;100482.47;5141882;28;20094;-74
2023/12/10 08:44:45;;;;;;;22.17;6.27;;;;;;;8.31;91.39;100479.00;5142854;29;20131;-74
2023/12/10 08:47:17;;;;;;;25.98;8.15;;;;;;;8.30;91.67;100478.13;5140190;29;20058;-76
2023/12/10 08:49:48;;;;;;;26.23;8.47;;;;;;;8.28;91.74;100482.47;5142583;28;20429;-74
2023/12/10 08:52:21;;;;;;;24.90;6.20;;;;;;;8.28;91.88;100485.06;5140766;28;20187;-74
2023/12/10 08:54:52;;;;;;;19.27;5.90;;;;;;;8.30;92.54;100483.31;5139631;28;20031;-75
2023/12/10 08:57:24;;;;;;;19.93;6.13;;;;;;;8.37;91.90;100497.09;5141929;28;20043;-73
2023/12/10 09:00:00;;;;;;;24.63;6.43;;;;;;;8.38;92.11;100491.91;5142582;29;20032;-75
2023/12/10 09:02:31;;;;;;;25.08;6.30;;;;;;;8.38;92.00;100491.06;5221422;28;20031;-75
2023/12/10 09:05:03;;;;;;;22.67;6.63;;;;;;;8.33;91.82;100493.69;5142133;28;20032;-74
2023/12/10 09:07:34;;;;;;;24.67;6.47;;;;;;;8.31;92.37;100498.03;5152010;28;20055;-74
2023/12/10 09:10:05;;;;;;;19.67;5.60;;;;;;;8.28;92.36;100492.00;5139653;29;20055;-74
2023/12/10 09:12:37;;;;;;;27.50;8.40;;;;;;;8.27;92.69;100501.53;5138718;28;20043;-74
2023/12/10 09:15:09;;;;;;;23.47;6.40;;;;;;;8.25;93.33;100502.44;5139172;29;20475;-74
2023/12/10 09:17:41;;;;;;;18.20;5.45;;;;;;;8.29;93.42;100501.50;5138450;28;20114;-74
2023/12/10 09:20:12;;;;;;;22.17;5.70;;;;;;;8.27;93.71;100505.88;5139400;29;20057;-74
2023/12/10 09:22:43;;;;;;;29.07;6.73;;;;;;;8.31;93.94;100508.44;5138251;29;20047;-73
2023/12/10 09:25:15;;;;;;;30.60;8.03;;;;;;;8.35;93.40;100509.25;5139614;28;20028;-74
2023/12/10 09:27:46;;;;;;;20.63;6.03;;;;;;;8.47;92.91;100508.31;5220681;28;20048;-74
2023/12/10 09:30:17;;;;;;;23.90;7.17;;;;;;;8.55;92.70;100512.59;5138699;28;20067;-74
2023/12/10 09:32:49;;;;;;;25.00;6.53;;;;;;;8.50;92.79;100516.97;5153416;28;20040;-74
2023/12/10 09:35:20;;;;;;;25.07;7.17;;;;;;;8.54;93.41;100515.19;5138352;29;20040;-74
2023/12/10 09:37:51;;;;;;;19.93;5.33;;;;;;;8.56;93.89;100510.84;5220941;28;20040;-75
2023/12/10 09:40:23;;;;;;;25.67;6.50;;;;;;;8.55;94.00;100514.34;5139547;29;20028;-77
2023/12/10 09:42:54;;;;;;;21.87;6.93;;;;;;;8.59;94.46;100521.22;5143608;28;20032;-74
2023/12/10 09:45:26;;;;;;;24.10;5.73;;;;;;;8.65;94.31;100523.75;5140063;29;20130;-73
2023/12/10 09:47:58;;;;;;;27.40;9.80;;;;;;;8.64;93.96;100511.63;5138260;29;20028;-74
2023/12/10 09:50:31;;;;;;;26.58;6.82;;;;;;;8.57;94.39;100522.97;5138432;29;20153;-73
2023/12/10 09:53:02;;;;;;;24.13;6.35;;;;;;;8.54;94.56;100518.66;5138724;28;20503;-73
2023/12/10 09:55:35;;;;;;;23.42;5.15;;;;;;;8.61;94.84;100522.03;5136816;29;20066;-76
2023/12/10 09:58:07;;;;;;;;;;;;;;;8.77;94.86;100512.38;5154222;29;20047;-75
2023/12/10 10:00:38;;;;;;;21.33;5.80;;;;;;;8.79;94.17;100518.44;5138704;28;19914;-74
2023/12/10 10:03:11;;;;;;;21.57;7.20;;;;;;;8.80;93.66;100507.16;5137677;28;20532;-73
2023/12/10 10:05:42;;;;;;;;;;;;;;;8.92;93.67;100504.44;5138366;29;20207;-74
2023/12/10 10:08:14;;;;;;;24.02;6.93;;;;;;;8.99;93.77;100509.56;5138282;28;20021;-75
2023/12/10 10:10:45;;;;;;;22.48;5.18;;;;;;;9.03;94.03;100519.03;5137212;29;20050;-75
2023/12/10 10:13:17;;;;;;;22.93;6.10;;;;;;;9.04;93.82;100515.59;5220178;28;20534;-74
2023/12/10 10:15:48;;;;;;;22.70;6.70;;;;;;;8.98;93.60;100506.09;5219936;28;20048;-72
2023/12/10 10:18:20;;;;;;;31.83;6.80;;;;;;;9.19;92.28;100519.75;5138431;29;20480;-71
2023/12/10 10:20:52;;;;;;;24.73;8.00;;;;;;;9.49;91.97;100508.13;5137762;29;20034;-72
2023/12/10 10:23:30;;;;;;;18.37;6.53;;;;;;;9.61;90.42;100496.66;5138164;29;20032;-74
2023/12/10 10:26:02;;;;;;;18.33;5.50;;;;;;;10.03;89.98;100500.41;5137816;29;20047;-75
2023/12/10 10:28:35;;;;;;;21.60;5.70;;;;;;;10.26;87.54;100487.94;5137605;29;20032;-75
2023/12/10 10:31:09;;;;;;;22.35;7.88;;;;;;;10.11;86.75;100502.91;5135903;28;20385;-74
2023/12/10 10:33:44;;;;;;;22.77;6.70;;;;;;;10.26;86.99;100504.41;5137939;28;20032;-74
2023/12/10 10:36:18;;;;;;;16.25;5.40;;;;;;;10.60;84.36;100516.91;5136787;28;20028;-74
2023/12/10 10:38:52;;;;;;;21.33;6.20;;;;;;;10.80;83.14;100513.09;5137922;28;20090;-74
2023/12/10 10:41:25;;;;;;;17.70;5.93;;;;;;;11.26;81.54;100528.72;5135844;28;20032;-75
2023/12/10 10:43:58;;;;;;;17.60;6.20;;;;;;;10.88;81.19;100519.03;5136628;28;20036;-73
2023/12/10 10:46:30;;;;;;;24.95;6.40;;;;;;;11.06;80.61;100518.69;5136524;28;20039;-74
2023/12/10 10:49:01;;;;;;;18.87;5.97;;;;;;;11.48;79.44;100529.16;5137925;28;20391;-74
2023/12/10 10:51:33;;;;;;;19.20;5.77;;;;;;;11.65;77.51;100535.78;5136454;29;20074;-74
2023/12/10 10:54:04;;;;;;;19.20;5.77;;;;;;;11.09;79.15;100517.75;5138252;28;20355;-73
2023/12/10 10:56:37;;;;;;;15.70;6.23;;;;;;;11.16;81.35;100515.88;5137190;28;20578;-75
2023/12/10 10:59:31;;;;;;;18.17;5.53;;;;;;;11.20;78.49;100509.72;5137932;28;20044;-75
2023/12/10 11:02:07;;;;;;;23.48;6.10;;;;;;;11.54;78.25;100517.72;5137499;28;20036;-75
2023/12/10 11:04:39;;;;;;;17.45;6.00;;;;;;;11.18;78.03;100504.53;5151817;28;20040;-75
2023/12/10 11:07:14;;;;;;;21.48;5.80;;;;;;;11.45;77.45;100510.09;5157241;28;20055;-75
2023/12/10 11:10:00;;;;;;;21.90;6.07;;;;;;;11.35;77.58;100503.34;5157624;28;20035;-74
2023/12/10 11:12:47;;;;;;;15.07;5.10;;;;;;;10.94;79.98;100509.34;5171648;28;20113;-74
2023/12/10 11:15:18;;;;;;;17.73;6.03;;;;;;;10.89;79.60;100513.78;5157509;28;20058;-74
2023/12/10 11:17:58;;;;;;;15.17;5.10;;;;;;;10.98;79.26;100491.03;5157066;28;20047;-74
2023/12/10 11:20:37;;;;;;;18.08;6.32;;;;;;;11.35;78.28;100493.78;5152437;28;20024;-75
2023/12/10 11:23:10;;;;;;;21.88;6.30;;;;;;;11.11;77.81;100493.38;5136824;29;20058;-75
2023/12/10 11:25:43;;;;;;;15.18;4.97;;;;;;;10.62;80.04;100493.44;5136723;29;20059;-73
2023/12/10 11:28:18;;;;;;;20.75;5.80;;;;;;;11.22;78.02;100493.16;5136827;28;20054;-74
2023/12/10 11:30:49;;;;;;;15.88;5.60;;;;;;;12.06;74.38;100484.41;5136073;28;20074;-74
2023/12/10 11:33:20;;;;;;;18.73;5.50;;;;;;;12.13;73.74;100487.72;5135810;28;20384;-74
2023/12/10 11:35:54;;;;;;;16.33;4.27;;;;;;;12.13;71.92;100480.75;5141810;28;20035;-74
2023/12/10 11:38:26;;;;;;;18.98;5.22;;;;;;;12.63;71.59;100492.59;5195406;28;20039;-74
2023/12/10 11:40:57;;;;;;;20.00;5.40;;;;;;;13.14;69.84;100485.09;5154512;28;20039;-74
2023/12/10 11:43:29;;;;;;;23.87;6.17;;;;;;;13.42;67.05;100476.47;5157308;28;20437;-74
2023/12/10 11:46:00;;;;;;;18.60;4.83;;;;;;;13.53;66.84;100465.69;5172861;28;20024;-74
2023/12/10 11:48:32;;;;;;;16.60;5.13;;;;;;;13.68;67.10;100467.84;5193219;28;20032;-75